Latest Weather Observations for Coober Pedy Airport

IDS60801

Issued at 6:35 am CST Wednesday 3 September 2014 (issued every 30 minutes, with the page automatically refreshed every 10 minutes)

About weather observations | Map of weather stations | Latest weather observations for SA | Other Formats
Station Details ID: 016090 Name: COOBER PEDY AIRPORT Lat: -29.03 Lon: 134.72 Height: 225.0 m
Data from the previous 72 hours. | See also: Recent months at Coober Pedy Airport
Date/Time
CST
Temp
°C
App
Temp
°C
Dew
Point
Rel
Hum
%
Delta-T
°C
Wind Press
QNH
hPa
Press
MSL
hPa
Rain
since 9 am
mm
Dir
 
Spd
km/h
Gust
km/h
Spd
kts
Gust
kts
03/06:30am 6.7 1.2 -2.4 52 3.4 ENE 17 20 9 11 1023.5 1023.0 0.0
03/06:00am 5.9 0.3 -3.2 52 3.3 E 17 19 9 10 1023.5 1023.0 0.0
03/05:30am 5.9 0.6 -3.7 50 3.4 ENE 15 15 8 8 1023.7 1023.2 0.0
03/05:00am 6.1 1.2 -3.8 49 3.5 ENE 13 15 7 8 1024.0 1023.5 0.0
03/04:30am 6.4 1.5 -3.5 49 3.5 ENE 13 15 7 8 1023.9 1023.4 0.0
03/04:00am 6.8 2.2 -4.3 45 3.9 E 11 13 6 7 1023.7 1023.2 0.0
03/03:30am 8.2 3.3 -3.3 44 4.2 E 13 15 7 8 1023.6 1023.1 0.0
03/03:00am 8.6 3.7 -3.3 43 4.4 E 13 15 7 8 1024.0 1023.5 0.0
03/02:30am 9.1 4.6 -3.1 42 4.5 E 11 15 6 8 1024.3 1023.8 0.0
03/02:00am 10.2 4.2 -2.8 40 5.0 E 19 22 10 12 1024.2 1023.7 0.0
03/01:30am 8.3 3.0 -3.2 44 4.2 E 15 17 8 9 1024.2 1023.7 0.0
03/01:00am 9.7 4.9 -2.9 41 4.8 ESE 13 15 7 8 1025.5 1025.0 0.0
03/12:30am 10.0 4.8 -3.0 40 4.9 E 15 15 8 8 1025.4 1024.9 0.0
03/12:00am 9.5 4.6 -3.7 39 4.9 E 13 15 7 8 1025.6 1025.1 0.0
 
Date/Time
CST
Temp
°C
App
Temp
°C
Dew
Point
Rel
Hum
%
Delta-T
°C
Wind Press
QNH
hPa
Press
MSL
hPa
Rain
since 9 am
mm
Dir
 
Spd
km/h
Gust
km/h
Spd
kts
Gust
kts
02/11:30pm 10.4 5.9 -3.3 38 5.2 ESE 11 13 6 7 1025.7 1025.2 0.0
02/11:00pm 10.2 5.3 -3.8 37 5.2 ESE 13 13 7 7 1026.0 1025.5 0.0
02/10:30pm 10.7 6.1 -3.7 36 5.4 ESE 11 13 6 7 1026.1 1025.6 0.0
02/10:00pm 10.8 5.8 -4.0 35 5.5 ESE 13 13 7 7 1026.2 1025.7 0.0
02/09:30pm 11.8 7.2 -3.9 33 5.9 ESE 11 11 6 6 1026.3 1025.8 0.0
02/09:00pm 12.2 7.6 -4.0 32 6.1 ESE 11 13 6 7 1026.2 1025.7 0.0
02/08:30pm 12.6 8.4 -4.1 31 6.3 ESE 9 11 5 6 1026.0 1025.5 0.0
02/08:00pm 13.1 8.9 -4.1 30 6.6 E 9 11 5 6 1026.0 1025.5 0.0
02/07:30pm 13.4 9.1 -4.7 28 6.8 E 9 9 5 5 1025.6 1025.1 0.0
02/07:00pm 14.0 9.8 -4.2 28 7.0 ESE 9 11 5 6 1025.5 1025.0 0.0
02/06:30pm 15.4 10.8 -4.0 26 7.6 ESE 11 13 6 7 1025.2 1024.7 0.0
02/06:00pm 16.7 12.9 -3.9 24 8.2 SE 7 11 4 6 1025.4 1024.9 0.0
02/05:30pm 17.2 13.0 -4.1 23 8.5 SE 9 13 5 7 1024.8 1024.3 0.0
02/05:00pm 17.6 13.9 -3.2 24 8.5 SE 7 13 4 7 1024.6 1024.1 0.0
02/04:30pm 17.9 14.7 -3.5 23 8.7 ESE 4 13 2 7 1024.9 1024.4 0.0
02/04:00pm 17.6 13.9 -3.2 24 8.5 SE 7 19 4 10 1024.9 1024.4 0.0
02/03:30pm 17.3 12.8 -3.4 24 8.4 E 11 17 6 9 1025.1 1024.6 0.0
02/03:00pm 17.9 13.8 -2.9 24 8.5 E 9 17 5 9 1025.4 1024.9 0.0
02/02:30pm 16.6 12.6 -2.5 27 7.8 SSE 9 17 5 9 1025.7 1025.2 0.0
02/02:00pm 16.4 12.0 -2.1 28 7.7 SSE 11 19 6 10 1026.0 1025.5 0.0
02/01:30pm 16.2 11.4 -2.3 28 7.6 SE 13 22 7 12 1026.4 1025.9 0.0
02/01:00pm 15.3 10.3 -0.9 33 6.8 SE 15 20 8 11 1027.1 1026.6 0.0
02/12:30pm 15.8 10.1 -0.4 33 6.9 ESE 19 28 10 15 1027.5 1027.0 0.0
02/12:00pm 14.1 8.5 0.0 38 5.9 SE 19 28 10 15 1027.9 1027.4 0.0
02/11:30am 14.0 8.8 -0.1 38 5.9 SE 17 24 9 13 1028.5 1028.0 0.0
02/11:00am 13.4 8.8 1.4 44 5.2 SE 15 28 8 15 1028.9 1028.4 0.0
02/10:30am 12.8 7.4 1.2 45 4.9 SE 19 28 10 15 1029.1 1028.6 0.0
02/10:00am 12.5 6.5 1.2 46 4.8 SE 22 33 12 18 1029.1 1028.6 0.0
02/09:30am 11.8 6.0 2.3 52 4.1 SE 22 30 12 16 1029.4 1028.9 0.0
02/09:00am 11.0 5.5 3.8 61 3.2 SSE 22 30 12 16 1029.0 1028.5 0.0
02/08:30am 9.6 4.1 4.2 69 2.4 S 22 30 12 16 1028.6 1028.1 0.0
02/08:00am 8.1 3.6 4.1 76 1.8 S 17 22 9 12 1028.3 1027.8 0.0
02/07:30am 6.5 1.5 3.5 81 1.3 S 19 22 10 12 1027.5 1027.0 0.0
02/07:00am 5.5 0.4 3.0 84 1.0 S 19 20 10 11 1027.5 1027.0 0.0
02/06:30am 5.3 1.3 3.0 85 1.0 S 13 17 7 9 1027.2 1026.7 0.0
02/06:00am 5.8 1.1 3.3 84 1.0 S 17 20 9 11 1026.8 1026.2 0.0
02/05:30am 6.1 1.4 3.4 83 1.1 S 17 19 9 10 1026.4 1025.9 0.0
02/05:00am 6.2 1.1 3.2 81 1.3 SSW 19 20 10 11 1026.2 1025.7 0.0
02/04:30am 6.3 1.2 3.1 80 1.3 S 19 20 10 11 1025.8 1025.3 0.0
02/04:00am 6.9 2.2 3.3 78 1.5 SSW 17 19 9 10 1025.8 1025.3 0.0
02/03:30am 6.9 2.6 3.0 76 1.6 SSW 15 17 8 9 1025.7 1025.2 0.0
02/03:00am 7.8 3.2 3.5 74 1.8 S 17 19 9 10 1025.8 1025.3 0.0
02/02:30am 8.2 3.6 3.7 73 2.0 S 17 19 9 10 1025.9 1025.4 0.0
02/02:00am 8.9 4.3 3.5 69 2.4 S 17 20 9 11 1025.7 1025.2 0.0
02/01:30am 9.6 4.4 3.8 67 2.6 S 20 24 11 13 1025.7 1025.2 0.0
02/01:00am 9.9 4.9 3.6 65 2.8 S 19 22 10 12 1025.8 1025.3 0.0
02/12:30am 10.4 5.4 3.7 63 3.0 S 19 24 10 13 1025.7 1025.2 0.0
02/12:00am 11.3 4.7 4.1 61 3.2 S 28 35 15 19 1025.6 1025.1 0.0
 
Date/Time
CST
Temp
°C
App
Temp
°C
Dew
Point
Rel
Hum
%
Delta-T
°C
Wind Press
QNH
hPa
Press
MSL
hPa
Rain
since 9 am
mm
Dir
 
Spd
km/h
Gust
km/h
Spd
kts
Gust
kts
01/11:30pm 11.9 5.0 4.4 60 3.4 S 30 37 16 20 1025.3 1024.8 0.0
01/11:00pm 12.5 5.3 5.0 60 3.5 S 32 41 17 22 1024.8 1024.3 0.0
01/10:30pm 13.2 6.0 5.1 58 3.8 SSW 32 41 17 22 1024.8 1024.3 0.0
01/10:00pm 13.6 7.1 4.7 55 4.2 SSW 28 35 15 19 1024.5 1024.0 0.0
01/09:30pm 13.6 8.1 3.9 52 4.4 S 22 28 12 15 1023.9 1023.4 0.0
01/09:00pm 13.9 9.0 3.9 51 4.6 SSW 19 20 10 11 1023.8 1023.3 0.0
01/08:30pm 14.5 9.4 3.9 49 4.9 SSW 20 26 11 14 1023.4 1022.9 0.0
01/08:00pm 15.1 8.9 4.2 48 5.1 SW 26 32 14 17 1023.0 1022.4 0.0
01/07:30pm 15.4 9.7 5.0 50 4.9 SW 24 30 13 16 1022.4 1021.8 0.0
01/07:00pm 15.8 9.4 5.4 50 5.0 SSW 28 35 15 19 1021.9 1021.4 0.0
01/06:30pm 16.1 9.8 5.7 50 5.0 SW 28 37 15 20 1021.3 1020.8 0.0
01/06:00pm 16.5 9.2 5.5 48 5.3 SW 33 43 18 23 1020.7 1020.2 0.0
01/05:30pm 17.3 9.4 6.2 48 5.5 SW 37 48 20 26 1020.1 1019.6 0.0
01/05:00pm 17.3 9.3 7.6 53 4.9 SW 39 54 21 29 1019.7 1019.2 0.0
01/04:30pm 18.2 9.4 7.3 49 5.5 SW 43 57 23 31 1019.1 1018.5 0.0
01/04:00pm 19.7 10.5 5.4 39 7.1 SW 43 52 23 28 1018.7 1018.1 0.0
01/03:30pm 20.1 10.7 4.6 36 7.6 SW 43 54 23 29 1018.3 1017.7 0.0
01/03:00pm 19.8 10.0 3.1 33 7.9 SW 44 50 24 27 1018.2 1017.6 0.0
01/02:30pm 20.6 11.3 2.9 31 8.4 SW 41 54 22 29 1018.0 1017.4 0.0
01/02:00pm 21.5 13.4 3.2 30 8.8 SW 35 48 19 26 1017.8 1017.2 0.0
01/01:33pm 21.4 12.8 4.5 33 8.3 SW 39 57 21 31 1018.2 1017.6 0.0
01/01:30pm 21.6 12.5 4.2 32 8.5 SW 41 57 22 31 1018.2 1017.6 0.0
01/01:29pm 21.6 12.9 4.2 32 8.5 SW 39 57 21 31 1018.2 1017.6 0.0
01/01:00pm 21.4 12.7 4.0 32 8.5 SW 39 54 21 29 1018.0 1017.4 0.0
01/12:30pm 21.5 14.3 5.8 36 7.9 SW 33 46 18 25 1018.4 1017.8 0.0
01/12:00pm 20.6 13.8 6.9 41 7.0 SSW 32 44 17 24 1018.7 1018.1 0.0
01/11:30am 20.0 12.4 7.7 45 6.4 SSW 37 48 20 26 1018.9 1018.3 0.0
01/11:00am 19.5 11.9 7.6 46 6.2 S 37 46 20 25 1018.9 1018.3 0.0
01/10:30am 19.0 11.3 8.6 51 5.5 SSW 39 50 21 27 1018.6 1018.0 0.0
01/10:00am 18.5 10.9 9.0 54 5.0 S 39 50 21 27 1018.4 1017.8 0.0
01/09:30am 17.6 10.4 9.2 58 4.4 S 37 46 20 25 1018.2 1017.6 0.0
01/09:00am 17.4 10.4 9.8 61 4.0 S 37 44 20 24 1017.8 1017.6 0.0
01/08:30am 16.5 9.8 9.7 64 3.6 S 35 44 19 24 1017.1 1017.0 0.0
01/08:00am 15.5 10.7 8.7 64 3.5 SSW 24 32 13 17 1016.7 1016.6 0.0
01/07:30am 14.3 8.8 7.6 64 3.3 SSW 26 32 14 17 1016.4 1016.3 0.0
01/07:00am 13.3 8.7 6.6 64 3.3 S 20 26 11 14 1015.6 1015.4 0.0
01/06:30am 13.4 8.8 6.3 62 3.4 S 20 22 11 12 1015.3 1015.1 0.0
01/06:00am 13.8 8.6 5.7 58 3.9 S 22 28 12 15 1014.8 1014.6 0.0
01/05:30am 13.8 7.6 4.4 53 4.4 S 26 32 14 17 1014.4 1014.2 0.0
01/05:00am 14.1 6.5 2.7 46 5.1 SSW 32 39 17 21 1013.9 1013.7 0.0
01/04:30am 13.9 8.0 -0.9 36 6.1 S 20 26 11 14 1013.0 1012.8 0.0
01/04:00am 14.6 8.6 -1.9 32 6.7 S 20 24 11 13 1012.5 1012.4 0.0
01/03:30am 14.7 9.2 -2.2 31 6.9 ESE 17 19 9 10 1011.9 1011.7 0.0
01/03:00am 14.2 9.3 -3.1 30 6.9 SE 13 15 7 8 1012.2 1012.1 0.0
01/02:30am 15.8 10.6 -2.6 28 7.5 SE 15 17 8 9 1012.4 1012.3 0.0
01/02:00am 16.2 11.3 -3.3 26 7.9 SSE 13 19 7 10 1012.6 1012.5 0.0
01/01:30am 17.2 11.5 -3.5 24 8.4 S 17 20 9 11 1012.6 1012.5 0.0
01/01:00am 18.5 12.7 -4.9 20 9.3 S 17 24 9 13 1013.2 1013.0 0.0
01/12:30am 19.5 14.2 -7.0 16 10.2 S 13 17 7 9 1013.0 1012.8 0.0
01/12:24am 18.8 9.9 -7.5 16 10.0 SW 32 39 17 21 1013.2 1013.0 0.0
01/12:00am 19.3 13.3 -7.1 16 10.2 NW 17 19 9 10 1012.8 1012.6 0.0
 
Date/Time
CST
Temp
°C
App
Temp
°C
Dew
Point
Rel
Hum
%
Delta-T
°C
Wind Press
QNH
hPa
Press
MSL
hPa
Rain
since 9 am
mm
Dir
 
Spd
km/h
Gust
km/h
Spd
kts
Gust
kts
31/11:30pm 21.6 15.9 -8.0 13 11.5 NW 15 19 8 10 1012.3 1012.2 0.0
31/11:00pm 22.7 16.6 -8.1 12 12.0 NNW 17 24 9 13 1012.8 1012.6 0.0
31/10:30pm 23.2 16.4 -8.9 11 12.4 NNW 20 32 11 17 1012.6 1012.5 0.0
31/10:02pm 24.6 16.3 -9.0 10 13.2 WNW 28 56 15 30 1013.0 1012.8 0.0
31/10:00pm 22.5 15.5 -7.3 13 11.8 W 22 50 12 27 1013.2 1013.0 0.0
31/09:30pm 21.4 14.3 -8.1 13 11.4 N 22 28 12 15 1012.5 1012.4 0.0
31/09:00pm 21.5 14.4 -8.0 13 11.4 N 22 26 12 14 1012.2 1012.1 0.0
31/08:30pm 22.2 15.1 -8.5 12 11.8 N 22 26 12 14 1012.4 1012.3 0.0
31/08:00pm 22.2 15.5 -8.5 12 11.8 N 20 20 11 11 1012.2 1012.1 0.0
31/07:30pm 22.6 16.1 -8.2 12 12.0 N 19 20 10 11 1012.0 1011.8 0.0
31/07:00pm 23.6 17.1 -8.5 11 12.6 N 19 20 10 11 1011.7 1011.5 0.0
31/06:30pm 25.3 19.0 -9.8 9 13.7 N 17 20 9 11 1011.6 1011.4 0.0
31/06:00pm 28.2 22.0 -9.1 8 15.1 N 17 22 9 12 1011.6 1011.4 0.0
31/05:30pm 29.7 23.8 -9.7 7 16.0 NNW 15 20 8 11 1011.7 1011.5 0.0
31/05:00pm 30.0 23.2 -9.5 7 16.2 N 20 28 11 15 1011.6 1011.4 0.0
31/04:30pm 30.7 23.9 -9.0 7 16.5 NW 20 32 11 17 1011.6 1011.4 0.0
31/04:00pm 30.8 23.3 -8.9 7 16.5 NNW 24 32 13 17 1011.8 1011.6 0.0
31/03:30pm 30.6 22.3 -9.1 7 16.5 NNW 28 41 15 22 1012.2 1012.1 0.0
31/03:00pm 30.4 23.0 -7.5 8 16.1 NW 24 32 13 17 1012.5 1012.4 0.0
31/02:30pm 30.3 22.5 -7.6 8 16.1 NNW 26 35 14 19 1013.1 1012.9 0.0
31/02:00pm 29.6 21.8 -8.1 8 15.7 N 26 41 14 22 1013.4 1013.2 0.0
31/01:30pm 29.5 21.6 -8.2 8 15.7 NNW 26 39 14 21 1013.9 1013.7 0.0
31/01:00pm 29.0 20.9 -7.0 9 15.2 NNW 28 35 15 19 1014.7 1014.5 0.0
31/12:30pm 27.8 19.2 -7.9 9 14.7 N 30 43 16 23 1015.5 1015.3 0.0
31/12:00pm 26.8 17.9 -7.3 10 14.1 N 32 41 17 22 1015.9 1015.8 0.0
31/11:30am 25.7 16.5 -8.2 10 13.6 N 33 46 18 25 1016.4 1016.3 0.0
31/11:00am 25.0 15.4 -8.7 10 13.3 N 35 44 19 24 1016.9 1016.8 0.0
31/10:30am 23.9 14.3 -8.3 11 12.7 N 35 43 19 23 1017.4 1017.2 0.0
31/10:00am 21.9 12.8 -7.7 13 11.6 N 33 41 18 22 1017.6 1017.4 0.0
31/09:30am 20.6 12.0 -7.8 14 10.9 N 30 39 16 21 1017.8 1017.6 0.0
31/09:00am 18.1 11.2 -6.6 18 9.5 N 22 28 12 15 1017.9 1017.7 0.0
31/08:30am 15.9 9.0 -6.4 21 8.4 N 22 28 12 15 1017.7 1017.5 0.0
31/08:00am 14.2 7.6 -7.2 22 7.7 N 20 24 11 13 1017.8 1017.6 0.0
31/07:30am 12.7 5.7 -7.3 24 7.1 N 22 24 12 13 1017.4 1017.2 0.0
31/07:00am 11.2 4.2 -7.6 26 6.5 N 22 24 12 13 1017.2 1017.1 0.0

Other Formats:

Comma delimited format used in spreadsheet applications
http://www.bom.gov.au/fwo/IDS60801/IDS60801.95458.axf

JavaScript Object Notation format (JSON) in row-major order
http://www.bom.gov.au/fwo/IDS60801/IDS60801.95458.json